Flight Track Log - Related Links

Times and Time Zones

All times are in EDT time to prevent confusion due to time zone crossing. See the VH-CZI flight status page for this flight to view local times or setup timezone preferences in your user account.

Time Position Orientation Groundspeed Altitude Reporting Facility
EDT Latitude Longitude Course Direction KTS MPH feet Rate Location/Type
Wed 03:04:07 AM -32.0907 115.8901 24° Northeast 87 100 600  Level Aus ATC (RADAR)
Wed 03:04:42 AM -32.0775 115.8969 24° Northeast 95 109 1,100 918 Climbing Aus ATC (RADAR)
Wed 03:05:32 AM -32.0653 115.8741 302° West 99 114 1,900 880 Climbing Aus ATC (RADAR)
Wed 03:05:57 AM -32.0643 115.8599 275° West 101 116 2,200 900 Climbing Aus ATC (RADAR)
Wed 03:06:32 AM -32.0625 115.8394 276° West 107 123 2,800 900 Climbing Aus ATC (RADAR)
Wed 03:07:37 AM -32.0510 115.8022 290° West 113 130 3,700 733 Climbing Aus ATC (RADAR)
Wed 03:08:02 AM -32.0468 115.7874 288° West 114 131 3,900 400 Climbing Aus ATC (RADAR)
Wed 03:08:37 AM -32.0467 115.7634 270° West 123 142 4,100 152 Climbing Aus ATC (RADAR)
Wed 03:09:21 AM -32.0470 115.7303 269° West 131 151 4,100 -76 Level Aus ATC (RADAR)
Wed 03:09:56 AM -32.0584 115.7115 235° Southwest 131 151 4,000  Descending Aus ATC (RADAR)
Wed 03:10:46 AM -32.0867 115.7114 180° South 121 139 4,100 160 Climbing Aus ATC (RADAR)
Wed 03:11:11 AM -32.1009 115.7090 188° South 123 142 4,200 100 Climbing Aus ATC (RADAR)
Wed 03:11:46 AM -32.1157 115.7202 147° Southeast 114 131 4,200  Level Aus ATC (RADAR)
Wed 03:12:36 AM -32.1260 115.7497 112° Southeast 114 131 4,200 -80 Level Aus ATC (RADAR)
Wed 03:13:01 AM -32.1334 115.7633 123° Southeast 115 132 4,100 -100 Descending Aus ATC (RADAR)
Wed 03:13:36 AM -32.1483 115.7788 139° Southeast 119 137 4,100  Level Aus ATC (RADAR)
Wed 03:14:21 AM -32.1678 115.7968 142° Southeast 119 137 4,100 75 Level Aus ATC (RADAR)
Wed 03:14:56 AM -32.1730 115.8166 107° East 115 132 4,200 -282 Climbing Aus ATC (RADAR)
Wed 03:15:46 AM -32.1706 115.8487 85° East 117 135 3,700 -560 Descending Aus ATC (RADAR)
Wed 03:16:11 AM -32.1699 115.8649 87° East 117 135 3,500 -600 Descending Aus ATC (RADAR)
Wed 03:16:46 AM -32.1695 115.8880 89° East 118 136 3,100 -333 Descending Aus ATC (RADAR)
Wed 03:17:41 AM -32.1426 115.9053 29° Northeast 129 148 3,000 -75 Descending Aus ATC (RADAR)
Wed 03:18:06 AM -32.1281 115.9103 16° North 130 150 3,000  Level Aus ATC (RADAR)
Wed 03:18:40 AM -32.1084 115.9154 12° North 124 143 3,000 -214 Level Aus ATC (RADAR)
Wed 03:19:30 AM -32.0806 115.9236 14° North 121 139 2,700 -419 Descending Aus ATC (RADAR)
Wed 03:20:06 AM -32.0626 115.9296 16° North 115 132 2,400 -675 Descending Aus ATC (RADAR)
Wed 03:20:50 AM -32.0389 115.9357 12° North 117 135 1,800 -696 Descending Aus ATC (RADAR)
Wed 03:21:15 AM -32.0266 115.9400 16° North 112 129 1,600 -554 Descending Aus ATC (RADAR)
Wed 03:21:55 AM -32.0066 115.9464 15° North 112 129 1,200 -565 Descending Aus ATC (RADAR)
Wed 03:22:40 AM -31.9824 115.9530 13° North 119 137 800 -600 Descending Aus ATC (RADAR)
Wed 03:23:05 AM -31.9697 115.9562 12° North 113 130 500 -100 Descending Aus ATC (RADAR)
Wed 03:23:40 AM -31.9597 115.9690 48° Northeast 97 112 700 675 Climbing Aus ATC (RADAR)
Wed 03:24:25 AM -31.9637 115.9942 101° East 100 115 1,400 900 Climbing Aus ATC (RADAR)
Wed 03:25:00 AM -31.9658 116.0139 97° East 99 114 1,900 825 Climbing Aus ATC (RADAR)
Wed 03:25:45 AM -31.9710 116.0379 104° East 99 114 2,500 880 Climbing Aus ATC (RADAR)
Wed 03:26:15 AM -31.9859 116.0386 178° South 107 123 3,000 554 Climbing Aus ATC (RADAR)
Wed 03:26:50 AM -32.0042 116.0355 188° South 118 136 3,100 126 Climbing Aus ATC (RADAR)
Wed 03:27:50 AM -32.0362 116.0221 200° South 125 144 3,200 71 Climbing Aus ATC (RADAR)
Wed 03:28:14 AM -32.0497 116.0152 203° Southwest 126 145 3,200 -203 Level Aus ATC (RADAR)
Wed 03:28:49 AM -32.0685 116.0045 206° Southwest 127 146 3,000 -300 Descending Aus ATC (RADAR)
Wed 03:29:34 AM -32.0926 115.9923 203° Southwest 123 142 2,800 -282 Descending Aus ATC (RADAR)
Wed 03:30:14 AM -32.0935 115.9642 268° West 126 145 2,600 -63 Descending Aus ATC (RADAR)
Wed 03:31:09 AM -32.0851 115.9263 285° West 131 151 2,700 86 Climbing Aus ATC (RADAR)
Wed 03:31:24 AM -32.0749 115.9236 347° North 136 157 2,700 -240 Level Aus ATC (RADAR)
Wed 03:31:59 AM -32.0541 115.9298 14° North 131 151 2,500 -600 Descending Aus ATC (RADAR)
Wed 03:32:54 AM -32.0237 115.9399 16° North 122 140 1,800 -776 Descending Aus ATC (RADAR)
Wed 03:33:24 AM -32.0077 115.9442 13° North 118 136 1,400 -771 Descending Aus ATC (RADAR)
Wed 03:34:04 AM -31.9882 115.9486 11° North 108 124 900 -560 Descending Aus ATC (RADAR)
Wed 03:34:39 AM -31.9712 115.9530 13° North 105 121 700 86 Descending Aus ATC (RADAR)
Wed 03:35:14 AM -31.9582 115.9462 336° Northwest 97 112 1,000 628 Climbing Aus ATC (RADAR)
Wed 03:36:05 AM -31.9592 115.9148 268° West 114 131 1,600 771 Climbing Aus ATC (RADAR)
Wed 03:36:24 AM -31.9593 115.9015 270° West 119 137 1,900 889 Climbing Aus ATC (RADAR)
Wed 03:36:59 AM -31.9609 115.8785 265° West 121 139 2,400 655 Climbing Aus ATC (RADAR)
Wed 03:38:14 AM -31.9648 115.8277 265° West 126 145 3,100 242 Climbing Aus ATC (RADAR)
Wed 03:39:03 AM -31.9671 115.7906 266° West 132 152 2,900 -574 Descending Aus ATC (RADAR)
Wed 03:39:48 AM -31.9707 115.7568 263° West 133 153 2,200 -635 Descending Aus ATC (RADAR)
Wed 03:40:28 AM -31.9749 115.7279 260° West 129 148 2,000 -67 Descending Aus ATC (RADAR)
Wed 03:41:18 AM -31.9800 115.6928 260° West 128 147 2,100  Climbing Aus ATC (RADAR)
Wed 03:41:43 AM -31.9832 115.6751 258° West 129 148 2,000 150 Descending Aus ATC (RADAR)
Wed 03:42:38 AM -31.9909 115.6367 257° West 133 153 2,300 267 Climbing Aus ATC (RADAR)
Wed 03:43:13 AM -31.9962 115.6099 257° West 140 161 2,400 300 Climbing Aus ATC (RADAR)
Wed 03:43:38 AM -31.9980 115.5909 264° West 136 157 2,600 600 Climbing Aus ATC (RADAR)
Wed 03:44:13 AM -32.0023 115.5663 258° West 132 152 3,000 267 Climbing Aus ATC (RADAR)
Wed 03:45:08 AM -32.0074 115.5236 262° West 144 166 3,000  Level Aus ATC (RADAR)
Wed 03:45:43 AM -32.0104 115.4963 263° West 140 161 3,000 71 Level Aus ATC (RADAR)
Wed 03:46:33 AM -32.0187 115.4597 255° West 138 159 3,100 71 Climbing Aus ATC (RADAR)
Wed 03:47:08 AM -32.0379 115.4646 168° South 129 148 3,100 71 Level Aus ATC (RADAR)
Wed 03:47:58 AM -32.0189 115.4868 45° Northeast 115 132 3,200 80 Climbing Aus ATC (RADAR)
Wed 03:48:23 AM -32.0117 115.4996 57° Northeast 116 133 3,200 -185 Level Aus ATC (RADAR)
Wed 03:49:03 AM -32.0064 115.5252 76° East 118 136 3,000 -152 Descending Aus ATC (RADAR)
Wed 03:49:42 AM -32.0042 115.5521 85° East 121 139 3,000  Level Aus ATC (RADAR)
Wed 03:50:17 AM -32.0226 115.5569 168° South 130 150 3,000 -267 Level Aus ATC (RADAR)
Wed 03:51:12 AM -32.0287 115.5182 260° West 130 150 2,600 -429 Descending Aus ATC (RADAR)
Wed 03:51:27 AM -32.0309 115.5077 256° West 128 147 2,500 -471 Descending Aus ATC (RADAR)
Wed 03:52:03 AM -32.0371 115.4833 253° West 129 148 2,200 -286 Descending Aus ATC (RADAR)
Wed 03:53:12 AM -32.0099 115.4855 North 124 143 2,000 -64 Descending Aus ATC (RADAR)
Wed 03:53:37 AM -32.0135 115.5017 105° East 118 136 2,100 100 Climbing Aus ATC (RADAR)
Wed 03:54:12 AM -32.0097 115.5240 79° East 116 133 2,100  Level Aus ATC (RADAR)
Wed 03:54:52 AM -32.0023 115.5492 71° East 118 136 2,100  Level Aus ATC (RADAR)
Wed 03:55:27 AM -32.0111 115.5663 121° Southeast 115 132 2,100 75 Level Aus ATC (RADAR)
Wed 03:56:12 AM -32.0227 115.5426 240° Southwest 118 136 2,200 86 Climbing Aus ATC (RADAR)
Wed 03:56:37 AM -32.0240 115.5260 265° West 118 136 2,200  Level Aus ATC (RADAR)
Wed 03:57:12 AM -32.0289 115.5028 256° West 121 139 2,200  Level Aus ATC (RADAR)
Wed 03:58:02 AM -32.0102 115.4883 327° Northwest 117 135 2,200 -160 Level Aus ATC (RADAR)
Wed 03:58:27 AM -32.0070 115.5043 77° East 117 135 2,000 -92 Descending Aus ATC (RADAR)
Wed 03:59:07 AM -32.0096 115.5293 97° East 114 131 2,100 75 Climbing Aus ATC (RADAR)
Wed 03:59:47 AM -32.0050 115.5527 77° East 112 129 2,100 80 Level Aus ATC (RADAR)
Wed 04:00:22 AM -32.0248 115.5495 188° South 127 146 2,200 75 Climbing Aus ATC (RADAR)
Wed 04:01:07 AM -32.0316 115.5198 255° West 124 143 2,200 -87 Level Aus ATC (RADAR)
Wed 04:01:31 AM -32.0361 115.5033 252° West 123 142 2,100  Descending Aus ATC (RADAR)
Wed 04:02:06 AM -32.0358 115.4808 271° West 118 136 2,200 55 Climbing Aus ATC (RADAR)
Wed 04:03:21 AM -32.0151 115.5111 51° Northeast 113 130 2,200 -60 Level Aus ATC (RADAR)
Wed 04:03:46 AM -32.0116 115.5264 75° East 112 129 2,100 -100 Descending Aus ATC (RADAR)
Wed 04:04:21 AM -32.0034 115.5469 65° Northeast 115 132 2,100 -353 Level Aus ATC (RADAR)
Wed 04:05:11 AM -32.0014 115.5808 86° East 121 139 1,600 -494 Descending Aus ATC (RADAR)
Wed 04:05:46 AM -31.9958 115.6031 74° East 121 139 1,400 -300 Descending Aus ATC (RADAR)
Wed 04:06:31 AM -31.9934 115.6334 85° East 120 138 1,200 -86 Descending Aus ATC (RADAR)
Wed 04:06:56 AM -32.0068 115.6375 166° South 123 142 1,300 100 Climbing Aus ATC (RADAR)
Wed 04:07:31 AM -32.0053 115.6155 275° West 123 142 1,300 -240 Level Aus ATC (RADAR)
Wed 04:08:36 AM -32.0074 115.5731 267° West 118 136 900 -133 Descending Aus ATC (RADAR)
Wed 04:09:01 AM -32.0056 115.5575 278° West 109 125 1,100 500 Climbing Aus ATC (RADAR)
Wed 04:09:36 AM -32.0220 115.5490 204° Southwest 119 137 1,400 835 Climbing Aus ATC (RADAR)
Wed 04:10:20 AM -32.0461 115.5487 181° South 118 136 2,200 456 Climbing Aus ATC (RADAR)
Wed 04:10:55 AM -32.0660 115.5475 183° South 123 142 2,000 -71 Descending Aus ATC (RADAR)
Wed 04:11:45 AM -32.0564 115.5189 291° West 119 137 2,100 80 Climbing Aus ATC (RADAR)
Wed 04:12:10 AM -32.0417 115.5185 358° North 124 143 2,100 79 Level Aus ATC (RADAR)
Wed 04:13:01 AM -32.0164 115.5314 23° Northeast 122 140 2,200 75 Climbing Aus ATC (RADAR)
Wed 04:13:30 AM -32.0052 115.5436 43° Northeast 114 131 2,200  Level Aus ATC (RADAR)
Wed 04:13:55 AM -32.0120 115.5584 118° Southeast 112 129 2,200  Level Aus ATC (RADAR)
Wed 04:14:30 AM -32.0230 115.5775 124° Southeast 117 135 2,200  Level Aus ATC (RADAR)
Wed 04:15:15 AM -32.0347 115.6025 119° Southeast 113 130 2,200  Level Aus ATC (RADAR)
Wed 04:15:50 AM -32.0446 115.6213 122° Southeast 113 130 2,200 -71 Level Aus ATC (RADAR)
Wed 04:16:40 AM -32.0575 115.6500 118° Southeast 116 133 2,100 -80 Descending Aus ATC (RADAR)
Wed 04:17:05 AM -32.0635 115.6646 116° Southeast 117 135 2,100  Level Aus ATC (RADAR)
Wed 04:17:45 AM -32.0747 115.6873 120° Southeast 117 135 2,100 -240 Level Aus ATC (RADAR)
Wed 04:18:45 AM -32.0845 115.7242 107° East 115 132 1,700 -353 Descending Aus ATC (RADAR)
Wed 04:19:10 AM -32.0890 115.7396 109° East 116 133 1,600  Descending Aus ATC (RADAR)
Wed 04:19:45 AM -32.0953 115.7606 109° East 111 128 1,700 71 Climbing Aus ATC (RADAR)
Wed 04:20:34 AM -32.0976 115.7921 95° East 113 130 1,700  Level Aus ATC (RADAR)
Wed 04:21:09 AM -32.0958 115.8142 85° East 115 132 1,700 -375 Level Aus ATC (RADAR)
Wed 04:21:54 AM -32.0928 115.8431 83° East 116 133 1,200 -429 Descending Aus ATC (RADAR)
Wed 04:22:19 AM -32.0873 115.8582 67° East 119 137 1,200  Level Aus ATC (RADAR)

Login

Don't have an account? Register now (free) for customized features, flight alerts, and more!